createdAt,value
2018-11-14T00:04:33.543Z,58.90
2018-11-14T00:09:37.781Z,58.90
2018-11-14T00:14:41.426Z,58.90
2018-11-14T00:19:45.321Z,59.00
2018-11-14T00:24:49.639Z,59.00
2018-11-14T00:29:54.149Z,59.20
2018-11-14T00:34:58.677Z,58.90
2018-11-14T00:40:02.324Z,59.00
2018-11-14T00:45:07.860Z,59.10
2018-11-14T00:50:13.037Z,59.00
2018-11-14T00:55:18.546Z,59.00
2018-11-14T01:00:23.789Z,59.00
2018-11-14T01:05:27.866Z,58.90
2018-11-14T01:10:31.983Z,59.10
2018-11-14T01:15:36.078Z,59.00
2018-11-14T01:20:39.982Z,59.00
2018-11-14T01:25:43.998Z,59.00
2018-11-14T01:30:48.133Z,59.00
2018-11-14T01:35:52.169Z,58.90
2018-11-14T01:40:56.137Z,58.90
2018-11-14T01:46:00.015Z,59.00
2018-11-14T01:51:03.637Z,59.00
2018-11-14T01:56:07.495Z,59.00
2018-11-14T02:01:11.634Z,59.00
2018-11-14T02:06:16.071Z,59.00
2018-11-14T02:11:19.699Z,59.00
2018-11-14T02:16:23.689Z,58.90
2018-11-14T02:21:27.311Z,58.90
2018-11-14T02:26:31.051Z,59.10
2018-11-14T02:31:34.794Z,59.00
2018-11-14T02:36:38.470Z,58.90
2018-11-14T02:41:42.171Z,59.00
2018-11-14T02:46:46.536Z,59.00
2018-11-14T02:51:50.403Z,58.90
2018-11-14T02:56:54.076Z,58.90
2018-11-14T03:01:57.854Z,58.90
2018-11-14T03:07:01.560Z,58.90
2018-11-14T03:12:05.617Z,59.00
2018-11-14T03:17:09.498Z,59.00
2018-11-14T03:22:13.321Z,58.90
2018-11-14T03:27:17.627Z,59.00
2018-11-14T03:32:21.241Z,58.90
2018-11-14T03:37:25.005Z,58.80
2018-11-14T03:42:28.992Z,58.80
2018-11-14T03:47:32.515Z,58.80
2018-11-14T03:52:36.188Z,58.90
2018-11-14T03:57:39.804Z,58.80
2018-11-14T04:02:45.047Z,58.80
2018-11-14T04:07:48.727Z,58.90
2018-11-14T04:12:52.784Z,58.90
2018-11-14T04:17:56.685Z,59.00
2018-11-14T04:23:00.577Z,58.80
2018-11-14T04:28:04.436Z,59.50
2018-11-14T04:33:08.230Z,58.90
2018-11-14T04:38:12.022Z,58.90
2018-11-14T04:43:15.779Z,58.90
2018-11-14T04:48:19.523Z,58.90
2018-11-14T04:53:23.350Z,58.80
2018-11-14T04:58:26.982Z,58.90
2018-11-14T05:03:30.803Z,58.90
2018-11-14T05:08:34.934Z,58.80
2018-11-14T05:13:38.565Z,58.90
2018-11-14T05:18:42.274Z,58.80
2018-11-14T05:23:45.974Z,58.90
2018-11-14T05:28:49.791Z,58.90
2018-11-14T05:33:53.667Z,58.90
2018-11-14T05:38:57.622Z,59.00
2018-11-14T05:44:01.593Z,58.90
2018-11-14T05:49:05.437Z,58.90
2018-11-14T05:54:10.075Z,59.00
2018-11-14T05:59:14.086Z,58.90
2018-11-14T06:09:53.661Z,58.90
2018-11-14T06:14:57.714Z,58.90
2018-11-14T06:20:01.740Z,58.90
2018-11-14T06:25:17.216Z,58.90
2018-11-14T06:30:21.652Z,58.90
2018-11-14T06:35:25.385Z,58.90
2018-11-14T06:40:29.612Z,58.90
2018-11-14T06:45:33.831Z,58.90
2018-11-14T06:50:37.919Z,59.00
2018-11-14T06:55:42.080Z,58.90
2018-11-14T07:00:55.847Z,59.00
2018-11-14T07:05:59.921Z,59.00
2018-11-14T07:11:13.868Z,59.00
2018-11-14T07:16:17.880Z,59.00
2018-11-14T07:21:21.695Z,58.90
2018-11-14T07:26:25.790Z,58.90
2018-11-14T07:31:29.399Z,58.90
2018-11-14T07:36:33.233Z,59.00
2018-11-14T07:41:38.511Z,59.00
2018-11-14T07:46:42.278Z,59.00
2018-11-14T07:51:46.190Z,59.00
2018-11-14T07:56:50.195Z,59.00
2018-11-14T08:01:53.943Z,59.00
2018-11-14T08:06:58.344Z,59.00
2018-11-14T08:12:02.378Z,59.00
2018-11-14T08:17:06.564Z,58.90
2018-11-14T08:22:11.146Z,58.80
2018-11-14T08:27:15.161Z,59.00
2018-11-14T08:32:19.239Z,59.10
2018-11-14T08:37:23.233Z,59.00
2018-11-14T08:42:27.542Z,59.00
2018-11-14T08:47:31.336Z,59.00
2018-11-14T08:52:34.983Z,58.90
2018-11-14T08:57:39.707Z,58.90
2018-11-14T09:02:44.043Z,59.00
2018-11-14T09:07:48.395Z,59.00
2018-11-14T09:12:52.688Z,59.00
2018-11-14T09:17:56.814Z,58.90
2018-11-14T09:23:00.686Z,59.00
2018-11-14T09:28:04.491Z,58.90
2018-11-14T09:33:08.321Z,59.20
2018-11-14T09:38:12.039Z,59.00
2018-11-14T09:43:16.386Z,59.00
2018-11-14T09:48:20.144Z,58.90
2018-11-14T09:53:23.952Z,59.00
2018-11-14T09:58:28.291Z,58.90
2018-11-14T10:03:32.440Z,59.00
2018-11-14T10:08:36.622Z,59.00
2018-11-14T10:13:40.741Z,58.90
2018-11-14T10:18:44.914Z,59.00
2018-11-14T10:23:48.508Z,59.10
2018-11-14T10:28:52.328Z,59.00
2018-11-14T10:33:56.365Z,59.00
2018-11-14T10:39:00.396Z,58.90
2018-11-14T10:44:04.436Z,58.90
2018-11-14T10:49:08.559Z,58.80
2018-11-14T10:54:12.218Z,58.80
2018-11-14T10:59:16.271Z,58.70
2018-11-14T11:04:25.292Z,58.70
2018-11-14T11:09:34.235Z,58.70
2018-11-14T11:14:43.499Z,58.60
2018-11-14T11:19:47.149Z,58.50
2018-11-14T11:24:51.470Z,58.40
2018-11-14T11:29:55.612Z,59.00
2018-11-14T11:35:00.118Z,58.40
2018-11-14T11:40:04.322Z,58.30
2018-11-14T11:45:08.545Z,58.30
2018-11-14T11:50:12.909Z,58.20
2018-11-14T11:55:16.945Z,58.10
2018-11-14T12:00:20.729Z,58.10
2018-11-14T12:05:24.475Z,58.20
2018-11-14T12:10:28.474Z,58.10
2018-11-14T12:15:32.289Z,58.20
2018-11-14T12:20:36.365Z,58.30
2018-11-14T12:25:40.477Z,58.00
2018-11-14T12:30:45.148Z,58.10
2018-11-14T12:35:48.878Z,57.90
2018-11-14T12:40:52.830Z,58.00
2018-11-14T12:45:56.456Z,57.90
2018-11-14T12:51:00.430Z,57.90
2018-11-14T12:56:04.171Z,57.80
2018-11-14T13:01:08.070Z,57.80
2018-11-14T13:06:12.146Z,57.70
2018-11-14T13:11:15.873Z,57.80
2018-11-14T13:16:19.957Z,57.80
2018-11-14T13:21:23.815Z,57.50
2018-11-14T13:26:27.815Z,57.50
2018-11-14T13:31:32.211Z,57.50
2018-11-14T13:36:36.786Z,57.50
2018-11-14T13:41:41.217Z,57.40
2018-11-14T13:46:45.130Z,57.20
2018-11-14T13:51:49.082Z,57.30
2018-11-14T13:56:52.962Z,57.20
2018-11-14T14:01:56.892Z,57.20
2018-11-14T14:07:00.714Z,57.20
2018-11-14T14:12:04.986Z,57.10
2018-11-14T14:17:08.872Z,57.10
2018-11-14T14:22:12.831Z,57.10
2018-11-14T14:27:16.347Z,57.20
2018-11-14T14:32:20.125Z,57.10
2018-11-14T14:37:23.698Z,57.20
2018-11-14T14:42:27.743Z,57.20
2018-11-14T14:47:31.678Z,57.20
2018-11-14T14:52:35.845Z,57.20
2018-11-14T14:57:40.241Z,57.20
2018-11-14T15:02:44.115Z,57.20
2018-11-14T15:07:48.172Z,57.20
2018-11-14T15:12:52.008Z,57.20
2018-11-14T15:17:56.231Z,57.30
2018-11-14T15:23:00.221Z,57.30
2018-11-14T15:28:03.909Z,57.30
2018-11-14T15:33:07.528Z,57.20
2018-11-14T15:38:11.318Z,57.30
2018-11-14T15:43:15.049Z,57.30
2018-11-14T15:48:18.811Z,57.30
2018-11-14T15:53:22.704Z,57.40
2018-11-14T15:58:26.731Z,57.40
2018-11-14T16:03:30.451Z,57.50
2018-11-14T16:08:34.254Z,57.60
2018-11-14T16:13:38.094Z,57.70
2018-11-14T16:18:41.884Z,57.70
2018-11-14T16:23:46.151Z,58.20
2018-11-14T16:28:49.793Z,57.80
2018-11-14T16:33:53.479Z,57.30
2018-11-14T16:38:57.009Z,57.70
2018-11-14T16:44:00.805Z,57.70
2018-11-14T16:49:04.566Z,57.70
2018-11-14T16:54:08.298Z,57.70
2018-11-14T16:59:12.186Z,57.60
2018-11-14T17:04:16.338Z,57.60
2018-11-14T17:09:20.171Z,57.50
2018-11-14T17:14:27.887Z,57.50
2018-11-14T17:19:31.795Z,57.50
2018-11-14T17:24:35.530Z,57.50
2018-11-14T17:29:39.254Z,57.30
2018-11-14T17:34:42.992Z,57.40
2018-11-14T17:39:46.873Z,58.00
2018-11-14T17:44:51.808Z,57.30
2018-11-14T17:49:55.522Z,57.30
2018-11-14T17:54:59.968Z,57.30
2018-11-14T18:00:04.831Z,57.10
2018-11-14T18:05:10.423Z,57.20
2018-11-14T18:10:15.169Z,57.20
2018-11-14T18:15:19.056Z,57.10
2018-11-14T18:20:24.711Z,57.00
2018-11-14T18:25:28.843Z,57.10
2018-11-14T18:30:33.303Z,57.90
2018-11-14T18:35:37.521Z,57.90
2018-11-14T18:40:41.493Z,57.80
2018-11-14T18:45:45.837Z,57.80
2018-11-14T18:50:49.634Z,57.80
2018-11-14T18:55:53.441Z,57.70
2018-11-14T19:00:58.239Z,57.70
2018-11-14T19:06:02.360Z,57.70
2018-11-14T19:11:06.781Z,57.70
2018-11-14T19:16:10.873Z,57.70
2018-11-14T19:21:15.171Z,57.70
2018-11-14T19:26:18.848Z,57.50
2018-11-14T19:31:23.161Z,57.50
2018-11-14T19:36:27.066Z,57.50
2018-11-14T19:41:30.770Z,57.50
2018-11-14T19:46:34.651Z,57.50
2018-11-14T19:51:38.625Z,57.40
2018-11-14T19:56:42.773Z,57.40
2018-11-14T20:01:47.314Z,57.50
2018-11-14T20:06:56.510Z,57.50
2018-11-14T20:12:00.092Z,57.40
2018-11-14T20:17:03.778Z,57.30
2018-11-14T20:22:08.006Z,57.30
2018-11-14T20:27:11.973Z,57.30
2018-11-14T20:32:16.073Z,57.30
2018-11-14T20:37:19.813Z,57.30
2018-11-14T20:42:23.986Z,57.30
2018-11-14T20:47:28.178Z,57.30
2018-11-14T20:52:32.303Z,57.20
2018-11-14T20:57:37.326Z,57.20
2018-11-14T21:02:41.862Z,57.20
2018-11-14T21:07:46.949Z,57.20
2018-11-14T21:12:51.616Z,57.10
2018-11-14T21:17:56.330Z,57.10
2018-11-14T21:23:00.644Z,57.00
2018-11-14T21:28:04.964Z,57.10
2018-11-14T21:33:09.234Z,57.00
2018-11-14T21:38:13.054Z,57.00
2018-11-14T21:43:17.297Z,56.90
2018-11-14T21:48:21.222Z,57.00
2018-11-14T21:53:29.765Z,56.90
2018-11-14T21:58:33.714Z,56.90
2018-11-14T22:04:01.610Z,56.90
2018-11-14T22:09:08.425Z,56.80
2018-11-14T22:14:12.654Z,56.80
2018-11-14T22:19:16.766Z,56.80
2018-11-14T22:24:25.613Z,56.80
2018-11-14T22:35:11.619Z,56.80
2018-11-14T22:40:17.145Z,56.70
2018-11-14T22:45:23.198Z,56.70
2018-11-14T22:50:27.380Z,56.60
2018-11-14T22:55:31.233Z,56.70
2018-11-14T23:00:40.781Z,56.60
2018-11-14T23:05:44.763Z,56.60
2018-11-14T23:10:48.663Z,56.60
2018-11-14T23:15:52.766Z,57.10
2018-11-14T23:20:56.809Z,56.50
2018-11-14T23:26:00.549Z,56.50
2018-11-14T23:31:04.375Z,56.40
2018-11-14T23:36:08.201Z,56.40
2018-11-14T23:41:12.255Z,56.40
2018-11-14T23:46:16.390Z,56.40
2018-11-14T23:51:20.695Z,56.30
2018-11-14T23:56:24.510Z,56.30
